createdAt,value
2022-10-22T00:00:42.387Z,10.90
2022-10-22T00:03:09.601Z,10.60
2022-10-22T00:05:37.057Z,11.23
2022-10-22T00:08:04.147Z,11.40
2022-10-22T00:10:31.305Z,11.55
2022-10-22T00:12:58.347Z,11.73
2022-10-22T00:15:25.455Z,12.40
2022-10-22T00:17:52.533Z,12.50
2022-10-22T00:20:19.752Z,11.57
2022-10-22T00:22:46.785Z,12.82
2022-10-22T00:25:14.149Z,11.90
2022-10-22T00:27:41.556Z,11.40
2022-10-22T00:30:09.300Z,11.63
2022-10-22T00:32:36.423Z,10.13
2022-10-22T00:35:04.086Z,10.00
2022-10-22T00:37:31.597Z,10.40
2022-10-22T00:39:58.723Z,10.05
2022-10-22T00:42:29.687Z,10.98
2022-10-22T00:45:16.901Z,11.80
2022-10-22T00:48:00.348Z,11.10
2022-10-22T00:50:34.735Z,11.18
2022-10-22T00:53:04.629Z,11.00
2022-10-22T00:55:33.291Z,11.55
2022-10-22T00:58:01.828Z,11.43
2022-10-22T01:00:29.074Z,10.98
2022-10-22T01:02:58.099Z,11.13
2022-10-22T01:05:29.561Z,11.43
2022-10-22T01:07:56.786Z,9.68
2022-10-22T01:10:59.891Z,11.73
2022-10-22T01:13:58.924Z,11.18
2022-10-22T01:16:37.823Z,11.73
2022-10-22T01:19:36.311Z,10.93
2022-10-22T01:22:20.537Z,11.32
2022-10-22T01:25:34.596Z,13.00
2022-10-22T01:28:40.139Z,12.80
2022-10-22T01:31:10.365Z,11.48
2022-10-22T01:33:39.600Z,11.70
2022-10-22T01:36:08.020Z,12.30
2022-10-22T01:38:35.202Z,12.40
2022-10-22T01:41:03.132Z,13.30
2022-10-22T01:43:30.148Z,11.27
2022-10-22T01:46:01.241Z,11.20
2022-10-22T01:49:04.708Z,12.23
2022-10-22T01:52:12.657Z,11.88
2022-10-22T01:55:11.099Z,11.55
2022-10-22T01:58:18.629Z,13.25
2022-10-22T02:00:54.799Z,11.65
2022-10-22T02:03:28.943Z,13.27
2022-10-22T02:06:02.110Z,12.52
2022-10-22T02:08:33.061Z,11.07
2022-10-22T02:11:01.245Z,12.43
2022-10-22T02:13:37.003Z,12.57
2022-10-22T02:16:08.483Z,12.10
2022-10-22T02:18:40.746Z,11.77
2022-10-22T02:23:36.194Z,12.27
2022-10-22T02:26:11.790Z,11.38
2022-10-22T02:28:53.024Z,12.30
2022-10-22T02:31:24.700Z,13.32
2022-10-22T02:33:55.007Z,12.82
2022-10-22T02:36:24.050Z,12.23
2022-10-22T02:38:52.357Z,12.77
2022-10-22T02:41:20.546Z,13.90
2022-10-22T02:43:57.086Z,12.68
2022-10-22T02:46:25.178Z,13.88
2022-10-22T02:48:52.185Z,13.63
2022-10-22T02:51:19.213Z,12.68
2022-10-22T02:53:46.218Z,12.50
2022-10-22T02:56:14.429Z,12.10
2022-10-22T02:58:41.423Z,12.93
2022-10-22T03:01:10.358Z,12.95
2022-10-22T03:03:39.440Z,13.23
2022-10-22T03:06:07.116Z,12.30
2022-10-22T03:08:35.063Z,12.20
2022-10-22T03:11:02.058Z,11.88
2022-10-22T03:13:29.541Z,12.02
2022-10-22T03:15:56.488Z,12.50
2022-10-22T03:18:23.624Z,13.15
2022-10-22T03:20:50.691Z,12.95
2022-10-22T03:23:20.352Z,12.82
2022-10-22T03:25:49.767Z,11.10
2022-10-22T03:28:19.038Z,12.18
2022-10-22T03:30:46.078Z,10.68
2022-10-22T03:33:13.099Z,11.48
2022-10-22T03:35:45.761Z,11.68
2022-10-22T03:38:14.896Z,10.05
2022-10-22T03:40:43.948Z,11.57
2022-10-22T03:43:11.309Z,11.18
2022-10-22T03:48:10.259Z,15.77
2022-10-22T03:50:37.290Z,10.45
2022-10-22T03:53:04.557Z,11.10
2022-10-22T03:55:31.598Z,11.57
2022-10-22T03:57:58.657Z,11.48
2022-10-22T04:00:25.646Z,12.77
2022-10-22T04:02:52.661Z,11.75
2022-10-22T04:05:19.594Z,11.88
2022-10-22T04:07:46.794Z,11.13
2022-10-22T04:10:13.902Z,10.65
2022-10-22T04:12:40.904Z,10.05
2022-10-22T04:15:08.906Z,10.77
2022-10-22T04:17:36.728Z,11.60
2022-10-22T04:20:05.234Z,11.05
2022-10-22T04:22:36.376Z,12.15
2022-10-22T04:25:04.912Z,11.50
2022-10-22T04:27:33.298Z,13.38
2022-10-22T04:30:00.259Z,11.80
2022-10-22T04:32:28.525Z,13.52
2022-10-22T04:34:55.466Z,14.68
2022-10-22T04:37:22.490Z,14.75
2022-10-22T04:39:49.511Z,14.60
2022-10-22T04:42:16.561Z,13.98
2022-10-22T04:44:43.660Z,14.23
2022-10-22T04:47:10.677Z,16.13
2022-10-22T04:49:37.780Z,14.60
2022-10-22T04:52:04.874Z,14.82
2022-10-22T04:54:33.163Z,17.75
2022-10-22T04:57:00.451Z,13.82
2022-10-22T04:59:27.473Z,15.73
2022-10-22T05:01:54.606Z,16.17
2022-10-22T05:04:21.788Z,18.70
2022-10-22T05:06:48.905Z,19.35
2022-10-22T05:09:19.870Z,15.98
2022-10-22T05:11:49.157Z,17.95
2022-10-22T05:14:18.644Z,16.55
2022-10-22T05:16:49.054Z,13.30
2022-10-22T05:19:24.274Z,13.80
2022-10-22T05:21:53.129Z,14.60
2022-10-22T05:24:20.781Z,14.18
2022-10-22T05:26:54.719Z,14.65
2022-10-22T05:29:22.525Z,15.77
2022-10-22T05:31:50.066Z,13.82
2022-10-22T05:34:17.325Z,14.77
2022-10-22T05:36:44.319Z,17.20
2022-10-22T05:39:11.383Z,15.32
2022-10-22T05:41:38.571Z,14.27
2022-10-22T05:44:06.126Z,15.27
2022-10-22T05:46:36.278Z,14.40
2022-10-22T05:49:06.222Z,16.30
2022-10-22T05:51:35.829Z,14.40
2022-10-22T05:54:05.321Z,14.90
2022-10-22T05:56:32.847Z,15.07
2022-10-22T05:59:00.745Z,14.38
2022-10-22T06:01:30.292Z,14.52
2022-10-22T06:04:00.160Z,13.90
2022-10-22T06:06:49.315Z,13.73
2022-10-22T06:09:23.791Z,14.38
2022-10-22T06:11:51.482Z,16.10
2022-10-22T06:14:19.527Z,15.00
2022-10-22T06:16:46.823Z,13.50
2022-10-22T06:19:15.675Z,15.35
2022-10-22T06:21:42.716Z,14.57
2022-10-22T06:24:10.775Z,13.98
2022-10-22T06:26:37.728Z,14.00
2022-10-22T06:29:04.966Z,14.77
2022-10-22T06:31:38.080Z,13.60
2022-10-22T06:34:07.362Z,14.35
2022-10-22T06:36:35.157Z,12.93
2022-10-22T06:39:02.206Z,14.23
2022-10-22T06:41:29.772Z,14.15
2022-10-22T06:43:58.119Z,16.38
2022-10-22T06:46:26.389Z,16.00
2022-10-22T06:48:58.759Z,16.70
2022-10-22T06:51:27.360Z,16.95
2022-10-22T06:53:56.011Z,15.63
2022-10-22T06:56:25.262Z,14.88
2022-10-22T06:58:53.760Z,15.95
2022-10-22T07:01:23.968Z,16.17
2022-10-22T07:03:52.024Z,14.63
2022-10-22T07:06:20.225Z,14.80
2022-10-22T07:08:47.725Z,12.13
2022-10-22T07:11:18.395Z,11.68
2022-10-22T07:13:46.473Z,12.68
2022-10-22T07:16:14.101Z,13.23
2022-10-22T07:18:42.031Z,17.35
2022-10-22T07:21:11.442Z,15.45
2022-10-22T07:23:39.122Z,13.32
2022-10-22T07:26:07.890Z,14.68
2022-10-22T07:28:36.837Z,15.63
2022-10-22T07:31:04.187Z,15.82
2022-10-22T07:33:31.737Z,16.85
2022-10-22T07:36:03.189Z,14.23
2022-10-22T07:38:31.834Z,14.00
2022-10-22T07:40:59.341Z,15.65
2022-10-22T07:43:27.144Z,15.43
2022-10-22T07:45:56.133Z,17.83
2022-10-22T07:48:23.580Z,18.20
2022-10-22T07:50:51.524Z,16.02
2022-10-22T07:53:19.568Z,17.25
2022-10-22T07:55:50.653Z,18.55
2022-10-22T07:58:19.059Z,16.27
2022-10-22T08:00:46.547Z,14.80
2022-10-22T08:03:14.998Z,15.57
2022-10-22T08:05:44.010Z,14.30
2022-10-22T08:08:12.203Z,14.90
2022-10-22T08:10:40.074Z,15.77
2022-10-22T08:13:08.495Z,14.48
2022-10-22T08:15:36.240Z,13.93
2022-10-22T08:18:03.881Z,13.18
2022-10-22T08:20:31.418Z,13.20
2022-10-22T08:22:59.209Z,14.00
2022-10-22T08:25:26.945Z,12.40
2022-10-22T08:27:54.359Z,12.23
2022-10-22T08:30:21.598Z,13.82
2022-10-22T08:32:51.615Z,12.60
2022-10-22T08:35:21.095Z,11.68
2022-10-22T08:37:48.310Z,11.48
2022-10-22T08:40:38.894Z,12.77
2022-10-22T08:43:41.995Z,13.35
2022-10-22T08:46:47.473Z,14.15
2022-10-22T08:49:22.046Z,12.95
2022-10-22T08:51:49.631Z,14.43
2022-10-22T08:54:52.182Z,14.25
2022-10-22T08:57:52.835Z,14.63
2022-10-22T09:00:46.406Z,13.93
2022-10-22T09:03:35.989Z,15.30
2022-10-22T09:06:15.080Z,14.05
2022-10-22T09:08:44.205Z,14.07
2022-10-22T09:11:33.342Z,14.95
2022-10-22T09:14:01.359Z,14.05
2022-10-22T09:17:05.309Z,13.25
2022-10-22T09:19:55.890Z,12.98
2022-10-22T09:23:04.674Z,15.13
2022-10-22T09:25:36.548Z,15.07
2022-10-22T09:28:06.127Z,13.02
2022-10-22T09:30:38.355Z,14.20
2022-10-22T09:33:14.962Z,14.52
2022-10-22T09:36:07.334Z,14.10
2022-10-22T09:38:40.884Z,14.05
2022-10-22T09:41:09.395Z,13.77
2022-10-22T09:43:36.596Z,14.98
2022-10-22T09:46:06.324Z,14.30
2022-10-22T09:48:41.498Z,14.35
2022-10-22T09:51:18.714Z,13.23
2022-10-22T09:53:56.697Z,15.75
2022-10-22T09:56:41.901Z,13.60
2022-10-22T09:59:19.972Z,14.50
2022-10-22T10:01:47.053Z,15.68
2022-10-22T10:04:16.821Z,14.57
2022-10-22T10:06:45.017Z,15.80
2022-10-22T10:09:17.075Z,13.27
2022-10-22T10:11:53.525Z,13.80
2022-10-22T10:15:28.388Z,15.20
2022-10-22T10:18:29.365Z,12.70
2022-10-22T10:21:34.055Z,14.48
2022-10-22T10:24:25.112Z,14.98
2022-10-22T10:27:26.042Z,15.15
2022-10-22T10:30:18.061Z,15.95
2022-10-22T10:33:09.932Z,15.00
2022-10-22T10:36:08.876Z,15.95
2022-10-22T10:39:00.339Z,15.88
2022-10-22T10:42:11.062Z,15.48
2022-10-22T10:45:11.389Z,14.80
2022-10-22T10:48:37.752Z,17.13
2022-10-22T10:51:37.895Z,15.75
2022-10-22T10:55:03.891Z,17.00
2022-10-22T10:58:08.146Z,15.00
2022-10-22T11:01:03.694Z,18.73
2022-10-22T11:04:30.102Z,15.38
2022-10-22T11:07:10.925Z,15.10
2022-10-22T11:09:55.459Z,15.23
2022-10-22T11:12:29.922Z,16.13
2022-10-22T11:15:09.311Z,17.13
2022-10-22T11:17:42.613Z,15.45
2022-10-22T11:20:23.497Z,15.65
2022-10-22T11:23:19.453Z,15.43
2022-10-22T11:25:49.590Z,15.30
2022-10-22T11:28:41.454Z,14.45
2022-10-22T11:31:16.472Z,18.15
2022-10-22T11:34:32.133Z,13.50
2022-10-22T11:36:59.496Z,14.98
2022-10-22T11:39:51.336Z,15.98
2022-10-22T11:42:36.462Z,13.43
2022-10-22T11:45:33.814Z,14.88
2022-10-22T11:48:28.138Z,14.88
2022-10-22T11:51:01.185Z,13.82
2022-10-22T11:53:36.788Z,13.50
2022-10-22T11:56:22.999Z,15.52
2022-10-22T11:58:53.940Z,15.00
2022-10-22T12:01:40.830Z,14.70
2022-10-22T12:04:19.577Z,12.30
2022-10-22T12:07:02.632Z,13.15
2022-10-22T12:09:33.093Z,12.30
2022-10-22T12:12:12.640Z,12.75
2022-10-22T12:14:57.057Z,13.60
2022-10-22T12:17:25.584Z,11.65
2022-10-22T12:20:14.342Z,11.18
2022-10-22T12:22:42.583Z,11.15
2022-10-22T12:25:18.350Z,11.82
2022-10-22T12:27:52.118Z,12.95
2022-10-22T12:30:35.123Z,11.02
2022-10-22T12:33:06.358Z,11.57
2022-10-22T12:35:44.327Z,11.45
2022-10-22T12:38:17.066Z,10.55
2022-10-22T12:40:47.677Z,10.98
2022-10-22T12:43:18.909Z,10.80
2022-10-22T12:45:49.683Z,11.70
2022-10-22T12:48:24.662Z,12.18
2022-10-22T12:50:54.967Z,12.20
2022-10-22T12:53:42.523Z,12.40
2022-10-22T12:56:18.090Z,10.27
2022-10-22T12:59:14.350Z,10.70
2022-10-22T13:01:43.127Z,11.27
2022-10-22T13:04:35.350Z,9.95
2022-10-22T13:07:21.846Z,10.35
2022-10-22T13:10:00.138Z,11.30
2022-10-22T13:12:29.045Z,11.70
2022-10-22T13:14:55.980Z,11.23
2022-10-22T13:17:41.360Z,10.27
2022-10-22T13:20:18.516Z,10.93
2022-10-22T13:23:03.495Z,10.32
2022-10-22T13:25:33.181Z,11.63
2022-10-22T13:28:18.553Z,10.13
2022-10-22T13:31:00.523Z,10.73
2022-10-22T13:33:35.070Z,11.10
2022-10-22T13:36:02.853Z,11.07
2022-10-22T13:38:30.756Z,9.82
2022-10-22T13:40:57.962Z,10.32
2022-10-22T13:43:25.754Z,9.98
2022-10-22T13:45:55.940Z,12.05
2022-10-22T13:48:24.696Z,16.35
2022-10-22T13:50:53.104Z,10.73
2022-10-22T13:53:25.617Z,12.45
2022-10-22T13:55:52.738Z,10.90
2022-10-22T13:58:25.214Z,11.75
2022-10-22T14:00:56.049Z,10.10
2022-10-22T14:03:28.563Z,10.52
2022-10-22T14:05:55.749Z,11.88
2022-10-22T14:08:25.589Z,9.15
2022-10-22T14:10:53.352Z,8.40
2022-10-22T14:13:21.466Z,8.43
2022-10-22T14:15:50.717Z,9.15
2022-10-22T14:18:25.797Z,9.18
2022-10-22T14:20:56.337Z,8.05
2022-10-22T14:23:25.991Z,7.57
2022-10-22T14:25:53.437Z,8.90
2022-10-22T14:28:20.621Z,8.68
2022-10-22T14:30:48.266Z,6.65
2022-10-22T14:33:19.199Z,9.45
2022-10-22T14:35:48.620Z,8.38
2022-10-22T14:38:16.064Z,9.30
2022-10-22T14:40:44.032Z,9.48
2022-10-22T14:43:20.609Z,7.93
2022-10-22T14:45:48.014Z,8.65
2022-10-22T14:48:16.284Z,10.00
2022-10-22T14:50:45.100Z,9.52
2022-10-22T14:53:14.046Z,10.35
2022-10-22T14:55:43.151Z,8.55
2022-10-22T14:58:12.471Z,10.20
2022-10-22T15:00:42.305Z,8.93
2022-10-22T15:03:10.133Z,9.05
2022-10-22T15:05:43.626Z,10.30
2022-10-22T15:08:11.639Z,8.57
2022-10-22T15:10:38.871Z,8.10
2022-10-22T15:13:06.272Z,8.48
2022-10-22T15:15:36.659Z,7.95
2022-10-22T15:18:06.628Z,7.25
2022-10-22T15:20:33.668Z,8.30
2022-10-22T15:23:00.684Z,8.48
2022-10-22T15:25:27.771Z,8.02
2022-10-22T15:27:58.479Z,8.25
2022-10-22T15:30:29.058Z,8.20
2022-10-22T15:32:56.160Z,8.68
2022-10-22T15:35:23.183Z,8.90
2022-10-22T15:37:53.343Z,7.80
2022-10-22T15:40:20.380Z,8.05
2022-10-22T15:42:47.495Z,7.93
2022-10-22T15:45:15.890Z,8.68
2022-10-22T15:47:47.702Z,8.57
2022-10-22T15:50:15.338Z,10.50
2022-10-22T15:52:42.268Z,14.15
2022-10-22T15:55:10.798Z,11.95
2022-10-22T15:57:39.302Z,15.80
2022-10-22T16:00:08.161Z,18.15
2022-10-22T16:02:42.152Z,18.13
2022-10-22T16:05:09.888Z,16.40
2022-10-22T16:07:37.018Z,17.30
2022-10-22T16:10:04.952Z,16.08
2022-10-22T16:12:31.869Z,14.45
2022-10-22T16:14:58.822Z,12.57
2022-10-22T16:17:25.845Z,11.68
2022-10-22T16:19:52.893Z,10.93
2022-10-22T16:22:20.030Z,10.95
2022-10-22T16:24:47.125Z,10.75
2022-10-22T16:27:14.261Z,10.55
2022-10-22T16:29:42.187Z,9.70
2022-10-22T16:32:09.199Z,9.75
2022-10-22T16:34:36.275Z,10.70
2022-10-22T16:37:03.355Z,12.15
2022-10-22T16:39:30.327Z,11.60
2022-10-22T16:41:57.423Z,11.25
2022-10-22T16:44:24.533Z,11.18
2022-10-22T16:46:51.716Z,10.85
2022-10-22T16:49:18.838Z,9.32
2022-10-22T16:51:45.957Z,9.18
2022-10-22T16:54:14.194Z,9.65
2022-10-22T16:56:41.417Z,10.45
2022-10-22T16:59:08.589Z,11.00
2022-10-22T17:01:40.285Z,12.07
2022-10-22T17:04:08.221Z,12.90
2022-10-22T17:06:35.267Z,10.85
2022-10-22T17:09:02.354Z,11.85
2022-10-22T17:11:35.194Z,11.25
2022-10-22T17:14:03.644Z,11.60
2022-10-22T17:16:30.932Z,16.20
2022-10-22T17:18:58.515Z,12.73
2022-10-22T17:21:25.710Z,13.32
2022-10-22T17:23:57.076Z,11.25
2022-10-22T17:26:26.883Z,12.15
2022-10-22T17:28:55.077Z,10.03
2022-10-22T17:31:37.643Z,11.98
2022-10-22T17:34:06.826Z,12.25
2022-10-22T17:36:36.021Z,11.98
2022-10-22T17:39:06.817Z,11.50
2022-10-22T17:41:36.724Z,9.65
2022-10-22T17:44:06.221Z,8.48
2022-10-22T17:46:33.268Z,8.55
2022-10-22T17:49:04.189Z,7.22
2022-10-22T17:51:32.546Z,8.13
2022-10-22T17:53:59.704Z,7.50
2022-10-22T17:56:30.215Z,9.65
2022-10-22T17:58:57.517Z,7.10
2022-10-22T18:01:27.590Z,8.40
2022-10-22T18:03:58.577Z,9.07
2022-10-22T18:11:27.075Z,9.55
2022-10-22T18:13:56.245Z,8.50
2022-10-22T18:16:23.390Z,7.47
2022-10-22T18:18:53.362Z,8.55
2022-10-22T18:21:21.534Z,8.35
2022-10-22T18:23:48.555Z,11.45
2022-10-22T18:26:17.956Z,8.70
2022-10-22T18:28:46.673Z,9.73
2022-10-22T18:31:18.454Z,8.65
2022-10-22T18:33:45.877Z,7.68
2022-10-22T18:36:16.486Z,7.25
2022-10-22T18:38:43.510Z,6.40
2022-10-22T18:41:13.973Z,6.50
2022-10-22T18:43:41.040Z,6.80
2022-10-22T18:46:08.132Z,6.88
2022-10-22T18:48:37.911Z,7.50
2022-10-22T18:51:08.688Z,8.55
2022-10-22T18:53:37.675Z,6.93
2022-10-22T18:56:05.993Z,6.63
2022-10-22T18:58:38.036Z,7.05
2022-10-22T19:01:14.234Z,6.78
2022-10-22T19:03:41.736Z,7.53
2022-10-22T19:06:08.856Z,7.03
2022-10-22T19:08:36.890Z,7.93
2022-10-22T19:11:09.932Z,7.85
2022-10-22T19:13:37.385Z,9.02
2022-10-22T19:16:11.851Z,10.20
2022-10-22T19:18:39.155Z,10.77
2022-10-22T19:21:06.413Z,12.65
2022-10-22T19:23:33.594Z,11.45
2022-10-22T19:26:15.707Z,11.30
2022-10-22T19:28:43.516Z,11.55
2022-10-22T19:31:12.946Z,10.30
2022-10-22T19:33:40.123Z,10.30
2022-10-22T19:36:12.637Z,10.38
2022-10-22T19:38:42.192Z,9.60
2022-10-22T19:41:12.695Z,9.55
2022-10-22T19:43:40.315Z,10.38
2022-10-22T19:46:07.890Z,10.82
2022-10-22T19:48:36.080Z,10.25
2022-10-22T19:51:06.005Z,10.80
2022-10-22T19:53:33.558Z,11.32
2022-10-22T19:56:00.919Z,9.98
2022-10-22T19:58:28.638Z,9.73
2022-10-22T20:00:55.851Z,8.90
2022-10-22T20:03:23.650Z,8.68
2022-10-22T20:05:51.510Z,8.52
2022-10-22T20:08:18.497Z,8.80
2022-10-22T20:10:49.220Z,9.45
2022-10-22T20:13:16.640Z,9.27
2022-10-22T20:15:43.861Z,8.15
2022-10-22T20:18:10.951Z,8.75
2022-10-22T20:20:38.327Z,8.18
2022-10-22T20:23:05.502Z,8.68
2022-10-22T20:25:32.498Z,8.13
2022-10-22T20:27:59.453Z,8.88
2022-10-22T20:30:26.465Z,8.80
2022-10-22T20:32:53.563Z,10.00
2022-10-22T20:35:20.603Z,8.85
2022-10-22T20:37:47.530Z,9.98
2022-10-22T20:40:14.743Z,9.40
2022-10-22T20:42:41.894Z,9.35
2022-10-22T20:45:09.844Z,8.68
2022-10-22T20:47:50.787Z,9.10
2022-10-22T20:50:19.192Z,9.43
2022-10-22T20:52:46.278Z,8.32
2022-10-22T20:57:46.977Z,11.25
2022-10-22T21:00:14.712Z,12.10
2022-10-22T21:02:41.789Z,10.23
2022-10-22T21:05:09.467Z,11.95
2022-10-22T21:07:36.506Z,12.57
2022-10-22T21:10:04.626Z,12.15
2022-10-22T21:12:31.618Z,9.60
2022-10-22T21:14:58.682Z,7.45
2022-10-22T21:17:25.769Z,8.73
2022-10-22T21:19:52.709Z,8.40
2022-10-22T21:22:19.767Z,9.05
2022-10-22T21:24:46.688Z,9.63
2022-10-22T21:27:13.819Z,11.00
2022-10-22T21:29:40.793Z,12.50
2022-10-22T21:32:07.936Z,14.18
2022-10-22T21:34:38.226Z,13.68
2022-10-22T21:39:33.301Z,11.95
2022-10-22T21:42:00.224Z,13.77
2022-10-22T21:44:27.260Z,11.85
2022-10-22T21:46:54.366Z,12.45
2022-10-22T21:49:21.596Z,12.75
2022-10-22T21:51:48.753Z,12.35
2022-10-22T21:54:15.919Z,12.45
2022-10-22T21:56:43.093Z,13.18
2022-10-22T21:59:10.210Z,13.00
2022-10-22T22:01:37.271Z,12.48
2022-10-22T22:04:04.572Z,13.38
2022-10-22T22:06:33.370Z,14.32
2022-10-22T22:09:01.645Z,12.32
2022-10-22T22:11:29.291Z,13.25
2022-10-22T22:13:57.611Z,12.82
2022-10-22T22:16:28.593Z,13.23
2022-10-22T22:18:58.462Z,14.80
2022-10-22T22:21:25.554Z,14.57
2022-10-22T22:23:52.767Z,15.98
2022-10-22T22:26:25.467Z,15.48
2022-10-22T22:28:56.450Z,14.65
2022-10-22T22:31:26.234Z,14.30
2022-10-22T22:34:08.117Z,14.23
2022-10-22T22:36:38.588Z,14.73
2022-10-22T22:39:08.413Z,12.75
2022-10-22T22:41:35.483Z,13.95
2022-10-22T22:44:02.756Z,15.82
2022-10-22T22:46:29.782Z,14.18
2022-10-22T22:48:56.725Z,14.55
2022-10-22T22:51:23.860Z,14.15
2022-10-22T22:53:51.339Z,14.80
2022-10-22T22:56:23.902Z,14.75
2022-10-22T22:58:51.311Z,13.38
2022-10-22T23:01:21.408Z,14.43
2022-10-22T23:04:00.132Z,14.35
2022-10-22T23:06:29.494Z,14.48
2022-10-22T23:08:57.201Z,14.05
2022-10-22T23:11:25.900Z,14.25
2022-10-22T23:14:00.958Z,12.43
2022-10-22T23:16:31.085Z,11.20
2022-10-22T23:18:59.066Z,11.25
2022-10-22T23:21:29.239Z,13.43
2022-10-22T23:24:00.194Z,11.48
2022-10-22T23:26:33.804Z,12.00
2022-10-22T23:29:06.284Z,12.13
2022-10-22T23:31:33.892Z,11.13
2022-10-22T23:34:01.323Z,15.10
2022-10-22T23:36:28.738Z,13.02
2022-10-22T23:38:56.074Z,12.65
2022-10-22T23:41:24.046Z,12.85
2022-10-22T23:43:51.076Z,10.32
2022-10-22T23:46:18.108Z,10.48
2022-10-22T23:48:45.399Z,11.73
2022-10-22T23:51:15.207Z,12.00
2022-10-22T23:53:44.155Z,11.25
2022-10-22T23:56:16.803Z,12.27
2022-10-22T23:58:44.595Z,12.07
